sensor_id;sensor_type;location;lat;lon;timestamp;temperature;humidity
6696;DHT22;3385;48.928;10.330;2022-07-09T00:00:36;14.10;99.90
6696;DHT22;3385;48.928;10.330;2022-07-09T00:03:01;14.00;99.90
6696;DHT22;3385;48.928;10.330;2022-07-09T00:05:27;14.00;99.90
6696;DHT22;3385;48.928;10.330;2022-07-09T00:07:53;13.90;99.90
6696;DHT22;3385;48.928;10.330;2022-07-09T00:10:19;13.80;99.90
6696;DHT22;3385;48.928;10.330;2022-07-09T00:12:45;13.80;99.90
6696;DHT22;3385;48.928;10.330;2022-07-09T00:15:11;13.70;99.90
6696;DHT22;3385;48.928;10.330;2022-07-09T00:17:36;13.70;99.90
6696;DHT22;3385;48.928;10.330;2022-07-09T00:20:03;13.70;99.90
6696;DHT22;3385;48.928;10.330;2022-07-09T00:22:31;13.70;99.90
6696;DHT22;3385;48.928;10.330;2022-07-09T00:24:58;13.80;99.90
6696;DHT22;3385;48.928;10.330;2022-07-09T00:27:26;13.70;99.90
6696;DHT22;3385;48.928;10.330;2022-07-09T00:29:52;13.70;99.90
6696;DHT22;3385;48.928;10.330;2022-07-09T00:32:18;13.60;99.90
6696;DHT22;3385;48.928;10.330;2022-07-09T00:34:44;13.60;99.90
6696;DHT22;3385;48.928;10.330;2022-07-09T00:37:10;13.60;99.90
6696;DHT22;3385;48.928;10.330;2022-07-09T00:39:37;13.60;99.90
6696;DHT22;3385;48.928;10.330;2022-07-09T00:42:10;13.50;99.90
6696;DHT22;3385;48.928;10.330;2022-07-09T00:44:36;13.50;99.90
6696;DHT22;3385;48.928;10.330;2022-07-09T00:47:03;13.40;99.90
6696;DHT22;3385;48.928;10.330;2022-07-09T00:49:30;13.40;99.90
6696;DHT22;3385;48.928;10.330;2022-07-09T00:51:57;13.40;99.90
6696;DHT22;3385;48.928;10.330;2022-07-09T00:54:24;13.40;99.90
6696;DHT22;3385;48.928;10.330;2022-07-09T00:56:54;13.40;99.90
6696;DHT22;3385;48.928;10.330;2022-07-09T00:59:21;13.40;99.90
6696;DHT22;3385;48.928;10.330;2022-07-09T01:01:48;13.40;99.90
6696;DHT22;3385;48.928;10.330;2022-07-09T01:04:14;13.50;99.90
6696;DHT22;3385;48.928;10.330;2022-07-09T01:06:40;13.50;99.90
6696;DHT22;3385;48.928;10.330;2022-07-09T01:09:06;13.50;99.90
6696;DHT22;3385;48.928;10.330;2022-07-09T01:11:32;13.60;99.90
6696;DHT22;3385;48.928;10.330;2022-07-09T01:13:59;13.60;99.90
6696;DHT22;3385;48.928;10.330;2022-07-09T01:16:32;13.70;99.90
6696;DHT22;3385;48.928;10.330;2022-07-09T01:18:58;13.80;99.90
6696;DHT22;3385;48.928;10.330;2022-07-09T01:21:24;13.80;99.90
6696;DHT22;3385;48.928;10.330;2022-07-09T01:23:50;13.80;99.90
6696;DHT22;3385;48.928;10.330;2022-07-09T01:26:16;13.80;99.90
6696;DHT22;3385;48.928;10.330;2022-07-09T01:28:42;13.80;99.90
6696;DHT22;3385;48.928;10.330;2022-07-09T01:31:07;13.80;99.90
6696;DHT22;3385;48.928;10.330;2022-07-09T01:33:33;13.80;99.90
6696;DHT22;3385;48.928;10.330;2022-07-09T01:35:59;13.80;99.90
6696;DHT22;3385;48.928;10.330;2022-07-09T01:38:25;13.80;99.90
6696;DHT22;3385;48.928;10.330;2022-07-09T01:40:51;13.80;99.90
6696;DHT22;3385;48.928;10.330;2022-07-09T01:43:17;13.70;99.90
6696;DHT22;3385;48.928;10.330;2022-07-09T01:45:42;13.70;99.90
6696;DHT22;3385;48.928;10.330;2022-07-09T01:48:09;13.70;99.90
6696;DHT22;3385;48.928;10.330;2022-07-09T01:50:35;13.70;99.90
6696;DHT22;3385;48.928;10.330;2022-07-09T01:53:01;13.60;99.90
6696;DHT22;3385;48.928;10.330;2022-07-09T01:55:27;13.70;99.90
6696;DHT22;3385;48.928;10.330;2022-07-09T01:57:52;13.60;99.90
6696;DHT22;3385;48.928;10.330;2022-07-09T02:00:18;13.60;99.90
6696;DHT22;3385;48.928;10.330;2022-07-09T02:02:44;13.60;99.90
6696;DHT22;3385;48.928;10.330;2022-07-09T02:05:10;13.50;99.90
6696;DHT22;3385;48.928;10.330;2022-07-09T02:07:36;13.40;99.90
6696;DHT22;3385;48.928;10.330;2022-07-09T02:10:03;13.40;99.90
6696;DHT22;3385;48.928;10.330;2022-07-09T02:12:29;13.30;99.90
6696;DHT22;3385;48.928;10.330;2022-07-09T02:14:58;13.30;99.90
6696;DHT22;3385;48.928;10.330;2022-07-09T02:17:24;13.30;99.90
6696;DHT22;3385;48.928;10.330;2022-07-09T02:19:50;13.30;99.90
6696;DHT22;3385;48.928;10.330;2022-07-09T02:22:19;13.30;99.90
6696;DHT22;3385;48.928;10.330;2022-07-09T02:24:44;13.40;99.90
6696;DHT22;3385;48.928;10.330;2022-07-09T02:27:10;13.50;99.90
6696;DHT22;3385;48.928;10.330;2022-07-09T02:29:36;13.50;99.90
6696;DHT22;3385;48.928;10.330;2022-07-09T02:32:02;13.60;99.90
6696;DHT22;3385;48.928;10.330;2022-07-09T02:34:28;13.60;99.90
6696;DHT22;3385;48.928;10.330;2022-07-09T02:36:54;13.70;99.90
6696;DHT22;3385;48.928;10.330;2022-07-09T02:39:19;13.70;99.90
6696;DHT22;3385;48.928;10.330;2022-07-09T02:41:45;13.70;99.90
6696;DHT22;3385;48.928;10.330;2022-07-09T02:44:11;13.70;99.90
6696;DHT22;3385;48.928;10.330;2022-07-09T02:46:37;13.70;99.90
6696;DHT22;3385;48.928;10.330;2022-07-09T02:49:02;13.60;99.90
6696;DHT22;3385;48.928;10.330;2022-07-09T02:51:29;13.50;99.90
6696;DHT22;3385;48.928;10.330;2022-07-09T02:53:55;13.50;99.90
6696;DHT22;3385;48.928;10.330;2022-07-09T02:56:20;13.40;99.90
6696;DHT22;3385;48.928;10.330;2022-07-09T02:58:46;13.30;99.90
6696;DHT22;3385;48.928;10.330;2022-07-09T03:01:12;13.30;99.90
6696;DHT22;3385;48.928;10.330;2022-07-09T03:03:38;13.20;99.90
6696;DHT22;3385;48.928;10.330;2022-07-09T03:06:04;13.20;99.90
6696;DHT22;3385;48.928;10.330;2022-07-09T03:08:31;13.20;99.90
6696;DHT22;3385;48.928;10.330;2022-07-09T03:10:57;13.20;99.90
6696;DHT22;3385;48.928;10.330;2022-07-09T03:13:22;13.10;99.90
6696;DHT22;3385;48.928;10.330;2022-07-09T03:15:51;13.10;99.90
6696;DHT22;3385;48.928;10.330;2022-07-09T03:18:17;13.10;99.90
6696;DHT22;3385;48.928;10.330;2022-07-09T03:20:43;13.10;99.90
6696;DHT22;3385;48.928;10.330;2022-07-09T03:23:09;13.10;99.90
6696;DHT22;3385;48.928;10.330;2022-07-09T03:25:34;13.10;99.90
6696;DHT22;3385;48.928;10.330;2022-07-09T03:28:00;13.00;99.90
6696;DHT22;3385;48.928;10.330;2022-07-09T03:30:26;13.00;99.90
6696;DHT22;3385;48.928;10.330;2022-07-09T03:32:51;13.00;99.90
6696;DHT22;3385;48.928;10.330;2022-07-09T03:35:17;12.90;99.90
6696;DHT22;3385;48.928;10.330;2022-07-09T03:37:43;12.90;99.90
6696;DHT22;3385;48.928;10.330;2022-07-09T03:40:09;12.80;99.90
6696;DHT22;3385;48.928;10.330;2022-07-09T03:42:35;12.80;99.90
6696;DHT22;3385;48.928;10.330;2022-07-09T03:45:01;12.80;99.90
6696;DHT22;3385;48.928;10.330;2022-07-09T03:47:27;12.70;99.90
6696;DHT22;3385;48.928;10.330;2022-07-09T03:49:52;12.70;99.90
6696;DHT22;3385;48.928;10.330;2022-07-09T03:52:18;12.70;99.90
6696;DHT22;3385;48.928;10.330;2022-07-09T03:54:44;12.70;99.90
6696;DHT22;3385;48.928;10.330;2022-07-09T03:57:10;12.70;99.90
6696;DHT22;3385;48.928;10.330;2022-07-09T03:59:36;12.70;99.90
6696;DHT22;3385;48.928;10.330;2022-07-09T04:02:02;12.70;99.90
6696;DHT22;3385;48.928;10.330;2022-07-09T04:04:29;12.80;99.90
6696;DHT22;3385;48.928;10.330;2022-07-09T04:06:55;12.90;99.90
6696;DHT22;3385;48.928;10.330;2022-07-09T04:09:21;12.90;99.90
6696;DHT22;3385;48.928;10.330;2022-07-09T04:11:47;13.00;99.90
6696;DHT22;3385;48.928;10.330;2022-07-09T04:14:13;13.10;99.90
6696;DHT22;3385;48.928;10.330;2022-07-09T04:16:44;13.10;99.90
6696;DHT22;3385;48.928;10.330;2022-07-09T04:19:10;13.20;99.90
6696;DHT22;3385;48.928;10.330;2022-07-09T04:21:35;13.30;99.90
6696;DHT22;3385;48.928;10.330;2022-07-09T04:24:01;13.40;99.90
6696;DHT22;3385;48.928;10.330;2022-07-09T04:26:27;13.50;99.90
6696;DHT22;3385;48.928;10.330;2022-07-09T04:28:52;13.60;99.90
6696;DHT22;3385;48.928;10.330;2022-07-09T04:31:18;13.70;99.90
6696;DHT22;3385;48.928;10.330;2022-07-09T04:33:47;13.80;99.90
6696;DHT22;3385;48.928;10.330;2022-07-09T04:36:13;13.90;99.90
6696;DHT22;3385;48.928;10.330;2022-07-09T04:38:38;14.00;99.90
6696;DHT22;3385;48.928;10.330;2022-07-09T04:41:04;14.10;99.90
6696;DHT22;3385;48.928;10.330;2022-07-09T04:43:31;14.20;99.90
6696;DHT22;3385;48.928;10.330;2022-07-09T04:45:57;14.20;99.90
6696;DHT22;3385;48.928;10.330;2022-07-09T04:48:23;14.30;99.90
6696;DHT22;3385;48.928;10.330;2022-07-09T04:50:48;14.30;99.90
6696;DHT22;3385;48.928;10.330;2022-07-09T04:53:14;14.40;99.90
6696;DHT22;3385;48.928;10.330;2022-07-09T04:55:40;14.50;99.90
6696;DHT22;3385;48.928;10.330;2022-07-09T04:58:06;14.50;99.90
6696;DHT22;3385;48.928;10.330;2022-07-09T05:00:31;14.50;99.90
6696;DHT22;3385;48.928;10.330;2022-07-09T05:02:59;14.60;99.90
6696;DHT22;3385;48.928;10.330;2022-07-09T05:05:24;14.60;99.90
6696;DHT22;3385;48.928;10.330;2022-07-09T05:07:51;14.60;99.90
6696;DHT22;3385;48.928;10.330;2022-07-09T05:10:18;14.60;99.90
6696;DHT22;3385;48.928;10.330;2022-07-09T05:12:45;14.70;99.90
6696;DHT22;3385;48.928;10.330;2022-07-09T05:15:11;14.80;99.90
6696;DHT22;3385;48.928;10.330;2022-07-09T05:17:38;14.80;99.90
6696;DHT22;3385;48.928;10.330;2022-07-09T05:20:05;14.90;99.90
6696;DHT22;3385;48.928;10.330;2022-07-09T05:22:32;14.90;99.90
6696;DHT22;3385;48.928;10.330;2022-07-09T05:24:58;15.00;99.90
6696;DHT22;3385;48.928;10.330;2022-07-09T05:27:25;15.00;99.90
6696;DHT22;3385;48.928;10.330;2022-07-09T05:29:50;15.00;99.90
6696;DHT22;3385;48.928;10.330;2022-07-09T05:32:16;15.00;99.90
6696;DHT22;3385;48.928;10.330;2022-07-09T05:34:42;15.00;99.90
6696;DHT22;3385;48.928;10.330;2022-07-09T05:37:08;14.90;99.90
6696;DHT22;3385;48.928;10.330;2022-07-09T05:39:34;14.90;99.90
6696;DHT22;3385;48.928;10.330;2022-07-09T05:41:59;14.90;99.90
6696;DHT22;3385;48.928;10.330;2022-07-09T05:44:25;14.90;99.90
6696;DHT22;3385;48.928;10.330;2022-07-09T05:46:51;15.00;99.90
6696;DHT22;3385;48.928;10.330;2022-07-09T05:49:17;15.00;99.90
6696;DHT22;3385;48.928;10.330;2022-07-09T05:51:42;15.10;99.90
6696;DHT22;3385;48.928;10.330;2022-07-09T05:54:08;15.20;99.90
6696;DHT22;3385;48.928;10.330;2022-07-09T05:56:34;15.20;99.90
6696;DHT22;3385;48.928;10.330;2022-07-09T05:59:02;15.30;99.90
6696;DHT22;3385;48.928;10.330;2022-07-09T06:01:29;15.30;99.90
6696;DHT22;3385;48.928;10.330;2022-07-09T06:03:54;15.30;99.90
6696;DHT22;3385;48.928;10.330;2022-07-09T06:06:20;15.40;99.90
6696;DHT22;3385;48.928;10.330;2022-07-09T06:08:47;15.40;99.90
6696;DHT22;3385;48.928;10.330;2022-07-09T06:11:13;15.50;99.90
6696;DHT22;3385;48.928;10.330;2022-07-09T06:13:39;15.50;99.90
6696;DHT22;3385;48.928;10.330;2022-07-09T06:16:05;15.60;99.90
6696;DHT22;3385;48.928;10.330;2022-07-09T06:18:31;15.60;99.90
6696;DHT22;3385;48.928;10.330;2022-07-09T06:20:57;15.60;99.90
6696;DHT22;3385;48.928;10.330;2022-07-09T06:23:23;15.70;99.90
6696;DHT22;3385;48.928;10.330;2022-07-09T06:25:49;15.70;99.90
6696;DHT22;3385;48.928;10.330;2022-07-09T06:28:15;15.80;99.90
6696;DHT22;3385;48.928;10.330;2022-07-09T06:30:41;15.80;99.90
6696;DHT22;3385;48.928;10.330;2022-07-09T06:33:08;15.90;99.90
6696;DHT22;3385;48.928;10.330;2022-07-09T06:35:33;15.90;99.90
6696;DHT22;3385;48.928;10.330;2022-07-09T06:37:59;16.00;99.90
6696;DHT22;3385;48.928;10.330;2022-07-09T06:40:26;16.10;99.90
6696;DHT22;3385;48.928;10.330;2022-07-09T06:42:52;16.20;99.90
6696;DHT22;3385;48.928;10.330;2022-07-09T06:45:18;16.40;99.90
6696;DHT22;3385;48.928;10.330;2022-07-09T06:47:44;16.40;99.90
6696;DHT22;3385;48.928;10.330;2022-07-09T06:50:10;16.50;99.90
6696;DHT22;3385;48.928;10.330;2022-07-09T06:52:36;16.50;99.90
6696;DHT22;3385;48.928;10.330;2022-07-09T06:55:01;16.60;99.90
6696;DHT22;3385;48.928;10.330;2022-07-09T06:57:27;16.80;99.90
6696;DHT22;3385;48.928;10.330;2022-07-09T06:59:54;16.90;99.90
6696;DHT22;3385;48.928;10.330;2022-07-09T07:02:20;17.00;99.90
6696;DHT22;3385;48.928;10.330;2022-07-09T07:04:45;17.20;99.90
6696;DHT22;3385;48.928;10.330;2022-07-09T07:07:11;17.30;99.90
6696;DHT22;3385;48.928;10.330;2022-07-09T07:09:37;17.40;99.90
6696;DHT22;3385;48.928;10.330;2022-07-09T07:12:03;17.50;99.90
6696;DHT22;3385;48.928;10.330;2022-07-09T07:14:29;17.70;99.90
6696;DHT22;3385;48.928;10.330;2022-07-09T07:16:55;17.80;99.90
6696;DHT22;3385;48.928;10.330;2022-07-09T07:19:20;18.00;99.90
6696;DHT22;3385;48.928;10.330;2022-07-09T07:21:47;18.10;99.90
6696;DHT22;3385;48.928;10.330;2022-07-09T07:24:13;18.20;99.90
6696;DHT22;3385;48.928;10.330;2022-07-09T07:26:39;18.40;99.90
6696;DHT22;3385;48.928;10.330;2022-07-09T07:29:05;18.40;99.90
6696;DHT22;3385;48.928;10.330;2022-07-09T07:31:31;18.40;99.90
6696;DHT22;3385;48.928;10.330;2022-07-09T07:33:57;18.50;99.90
6696;DHT22;3385;48.928;10.330;2022-07-09T07:36:23;18.50;99.90
6696;DHT22;3385;48.928;10.330;2022-07-09T07:38:49;18.60;99.90
6696;DHT22;3385;48.928;10.330;2022-07-09T07:41:15;18.60;99.90
6696;DHT22;3385;48.928;10.330;2022-07-09T07:43:44;18.80;99.90
6696;DHT22;3385;48.928;10.330;2022-07-09T07:46:10;19.00;99.90
6696;DHT22;3385;48.928;10.330;2022-07-09T07:48:37;19.20;99.90
6696;DHT22;3385;48.928;10.330;2022-07-09T07:51:04;19.50;99.90
6696;DHT22;3385;48.928;10.330;2022-07-09T07:53:36;19.80;99.90
6696;DHT22;3385;48.928;10.330;2022-07-09T07:56:06;20.00;99.90
6696;DHT22;3385;48.928;10.330;2022-07-09T07:58:32;20.20;99.90
6696;DHT22;3385;48.928;10.330;2022-07-09T08:00:58;20.40;99.90
6696;DHT22;3385;48.928;10.330;2022-07-09T08:03:24;20.70;99.90
6696;DHT22;3385;48.928;10.330;2022-07-09T08:05:50;20.90;99.90
6696;DHT22;3385;48.928;10.330;2022-07-09T08:08:16;21.00;99.90
6696;DHT22;3385;48.928;10.330;2022-07-09T08:10:44;21.00;99.90
6696;DHT22;3385;48.928;10.330;2022-07-09T08:13:11;21.00;99.90
6696;DHT22;3385;48.928;10.330;2022-07-09T08:15:38;20.90;99.90
6696;DHT22;3385;48.928;10.330;2022-07-09T08:18:04;20.80;99.90
6696;DHT22;3385;48.928;10.330;2022-07-09T08:20:30;20.60;99.90
6696;DHT22;3385;48.928;10.330;2022-07-09T08:22:56;20.40;99.90
6696;DHT22;3385;48.928;10.330;2022-07-09T08:25:21;20.30;99.90
6696;DHT22;3385;48.928;10.330;2022-07-09T08:27:47;20.30;99.90
6696;DHT22;3385;48.928;10.330;2022-07-09T08:30:15;20.40;99.90
6696;DHT22;3385;48.928;10.330;2022-07-09T08:32:40;20.50;99.90
6696;DHT22;3385;48.928;10.330;2022-07-09T08:35:07;20.50;99.90
6696;DHT22;3385;48.928;10.330;2022-07-09T08:37:32;20.60;99.90
6696;DHT22;3385;48.928;10.330;2022-07-09T08:40:00;20.70;99.90
6696;DHT22;3385;48.928;10.330;2022-07-09T08:42:25;20.70;99.90
6696;DHT22;3385;48.928;10.330;2022-07-09T08:44:52;20.80;99.90
6696;DHT22;3385;48.928;10.330;2022-07-09T08:47:20;20.90;99.90
6696;DHT22;3385;48.928;10.330;2022-07-09T08:49:47;21.00;99.90
6696;DHT22;3385;48.928;10.330;2022-07-09T08:52:15;21.10;99.90
6696;DHT22;3385;48.928;10.330;2022-07-09T08:54:42;21.20;99.90
6696;DHT22;3385;48.928;10.330;2022-07-09T08:57:09;21.20;99.90
6696;DHT22;3385;48.928;10.330;2022-07-09T08:59:35;21.20;99.90
6696;DHT22;3385;48.928;10.330;2022-07-09T09:02:05;21.20;99.90
6696;DHT22;3385;48.928;10.330;2022-07-09T09:04:32;21.30;99.90
6696;DHT22;3385;48.928;10.330;2022-07-09T09:07:10;21.30;99.90
6696;DHT22;3385;48.928;10.330;2022-07-09T09:09:36;21.30;99.90
6696;DHT22;3385;48.928;10.330;2022-07-09T09:12:02;21.40;99.90
6696;DHT22;3385;48.928;10.330;2022-07-09T09:14:29;21.40;99.90
6696;DHT22;3385;48.928;10.330;2022-07-09T09:17:05;22.40;99.90
6696;DHT22;3385;48.928;10.330;2022-07-09T09:19:32;21.60;99.90
6696;DHT22;3385;48.928;10.330;2022-07-09T09:21:58;21.60;99.90
6696;DHT22;3385;48.928;10.330;2022-07-09T09:24:27;21.60;99.90
6696;DHT22;3385;48.928;10.330;2022-07-09T09:26:58;21.60;99.90
6696;DHT22;3385;48.928;10.330;2022-07-09T09:29:24;21.60;99.90
6696;DHT22;3385;48.928;10.330;2022-07-09T09:31:50;21.80;99.90
6696;DHT22;3385;48.928;10.330;2022-07-09T09:34:16;21.90;99.90
6696;DHT22;3385;48.928;10.330;2022-07-09T09:36:50;21.90;99.90
6696;DHT22;3385;48.928;10.330;2022-07-09T09:39:26;21.90;99.90
6696;DHT22;3385;48.928;10.330;2022-07-09T09:41:57;21.70;99.90
6696;DHT22;3385;48.928;10.330;2022-07-09T09:44:26;21.60;99.90
6696;DHT22;3385;48.928;10.330;2022-07-09T09:46:53;21.50;99.90
6696;DHT22;3385;48.928;10.330;2022-07-09T09:49:19;21.60;99.90
6696;DHT22;3385;48.928;10.330;2022-07-09T09:52:09;21.80;99.90
6696;DHT22;3385;48.928;10.330;2022-07-09T09:54:36;22.20;99.90
6696;DHT22;3385;48.928;10.330;2022-07-09T09:57:08;22.60;99.90
6696;DHT22;3385;48.928;10.330;2022-07-09T09:59:39;22.90;99.90
6696;DHT22;3385;48.928;10.330;2022-07-09T10:02:06;23.20;99.90
6696;DHT22;3385;48.928;10.330;2022-07-09T10:04:32;23.40;99.90
6696;DHT22;3385;48.928;10.330;2022-07-09T10:06:58;23.40;99.90
6696;DHT22;3385;48.928;10.330;2022-07-09T10:09:24;23.30;99.90
6696;DHT22;3385;48.928;10.330;2022-07-09T10:11:50;23.10;99.90
6696;DHT22;3385;48.928;10.330;2022-07-09T10:14:28;22.90;99.90
6696;DHT22;3385;48.928;10.330;2022-07-09T10:16:54;22.80;99.90
6696;DHT22;3385;48.928;10.330;2022-07-09T10:19:28;22.70;99.90
6696;DHT22;3385;48.928;10.330;2022-07-09T10:21:58;22.70;99.90
6696;DHT22;3385;48.928;10.330;2022-07-09T10:24:29;22.90;99.90
6696;DHT22;3385;48.928;10.330;2022-07-09T10:27:11;23.10;99.90
6696;DHT22;3385;48.928;10.330;2022-07-09T10:29:58;23.30;99.90
6696;DHT22;3385;48.928;10.330;2022-07-09T10:32:31;23.50;99.90
6696;DHT22;3385;48.928;10.330;2022-07-09T10:35:03;23.70;99.30
6696;DHT22;3385;48.928;10.330;2022-07-09T10:40:13;23.70;99.40
6696;DHT22;3385;48.928;10.330;2022-07-09T10:42:40;23.80;98.90
6696;DHT22;3385;48.928;10.330;2022-07-09T10:45:26;24.10;98.10
6696;DHT22;3385;48.928;10.330;2022-07-09T10:47:58;24.30;96.80
6696;DHT22;3385;48.928;10.330;2022-07-09T10:50:25;24.10;97.60
6696;DHT22;3385;48.928;10.330;2022-07-09T10:52:52;24.10;98.70
6696;DHT22;3385;48.928;10.330;2022-07-09T10:55:19;23.90;96.90
6696;DHT22;3385;48.928;10.330;2022-07-09T10:57:45;23.70;96.20
6696;DHT22;3385;48.928;10.330;2022-07-09T11:00:26;23.50;97.30
6696;DHT22;3385;48.928;10.330;2022-07-09T11:05:28;23.40;98.00
6696;DHT22;3385;48.928;10.330;2022-07-09T11:08:09;23.40;98.60
6696;DHT22;3385;48.928;10.330;2022-07-09T11:10:37;23.50;98.10
6696;DHT22;3385;48.928;10.330;2022-07-09T11:13:05;23.60;97.60
6696;DHT22;3385;48.928;10.330;2022-07-09T11:15:33;23.70;97.50
6696;DHT22;3385;48.928;10.330;2022-07-09T11:18:07;23.80;97.00
6696;DHT22;3385;48.928;10.330;2022-07-09T11:23:03;24.40;96.90
6696;DHT22;3385;48.928;10.330;2022-07-09T11:25:29;24.80;96.00
6696;DHT22;3385;48.928;10.330;2022-07-09T11:27:59;25.20;94.20
6696;DHT22;3385;48.928;10.330;2022-07-09T11:30:26;25.60;93.50
6696;DHT22;3385;48.928;10.330;2022-07-09T11:32:53;25.90;92.30
6696;DHT22;3385;48.928;10.330;2022-07-09T11:35:31;26.10;90.60
6696;DHT22;3385;48.928;10.330;2022-07-09T11:37:59;26.20;90.70
6696;DHT22;3385;48.928;10.330;2022-07-09T11:40:25;26.50;90.20
6696;DHT22;3385;48.928;10.330;2022-07-09T11:42:51;26.70;81.70
6696;DHT22;3385;48.928;10.330;2022-07-09T11:47:50;26.30;85.50
6696;DHT22;3385;48.928;10.330;2022-07-09T11:50:17;26.00;84.10
6696;DHT22;3385;48.928;10.330;2022-07-09T11:52:48;25.60;86.30
6696;DHT22;3385;48.928;10.330;2022-07-09T11:55:17;25.50;84.00
6696;DHT22;3385;48.928;10.330;2022-07-09T11:57:54;25.70;86.00
6696;DHT22;3385;48.928;10.330;2022-07-09T12:00:28;25.80;81.10
6696;DHT22;3385;48.928;10.330;2022-07-09T12:02:56;25.50;82.40
6696;DHT22;3385;48.928;10.330;2022-07-09T12:05:27;25.20;87.30
6696;DHT22;3385;48.928;10.330;2022-07-09T12:07:56;25.00;86.80
6696;DHT22;3385;48.928;10.330;2022-07-09T12:10:41;24.90;90.00
6696;DHT22;3385;48.928;10.330;2022-07-09T12:13:06;24.80;90.50
6696;DHT22;3385;48.928;10.330;2022-07-09T12:15:35;24.80;88.90
6696;DHT22;3385;48.928;10.330;2022-07-09T12:18:01;24.80;87.40
6696;DHT22;3385;48.928;10.330;2022-07-09T12:20:29;24.70;85.70
6696;DHT22;3385;48.928;10.330;2022-07-09T12:22:56;24.40;88.90
6696;DHT22;3385;48.928;10.330;2022-07-09T12:25:22;24.00;91.50
6696;DHT22;3385;48.928;10.330;2022-07-09T12:27:48;23.70;91.90
6696;DHT22;3385;48.928;10.330;2022-07-09T12:30:17;23.50;92.50
6696;DHT22;3385;48.928;10.330;2022-07-09T12:32:43;23.20;93.50
6696;DHT22;3385;48.928;10.330;2022-07-09T12:35:09;23.20;93.80
6696;DHT22;3385;48.928;10.330;2022-07-09T12:37:36;23.20;93.00
6696;DHT22;3385;48.928;10.330;2022-07-09T12:40:07;23.40;93.10
6696;DHT22;3385;48.928;10.330;2022-07-09T12:42:33;23.70;92.50
6696;DHT22;3385;48.928;10.330;2022-07-09T12:44:59;24.00;92.20
6696;DHT22;3385;48.928;10.330;2022-07-09T12:47:26;24.70;90.80
6696;DHT22;3385;48.928;10.330;2022-07-09T12:49:51;25.80;88.00
6696;DHT22;3385;48.928;10.330;2022-07-09T12:52:17;26.50;86.20
6696;DHT22;3385;48.928;10.330;2022-07-09T12:54:44;26.40;83.40
6696;DHT22;3385;48.928;10.330;2022-07-09T12:57:10;26.20;82.70
6696;DHT22;3385;48.928;10.330;2022-07-09T12:59:36;26.40;86.40
6696;DHT22;3385;48.928;10.330;2022-07-09T13:02:03;27.60;84.90
6696;DHT22;3385;48.928;10.330;2022-07-09T13:04:29;28.10;78.60
6696;DHT22;3385;48.928;10.330;2022-07-09T13:06:54;29.20;75.10
6696;DHT22;3385;48.928;10.330;2022-07-09T13:09:20;30.00;71.60
6696;DHT22;3385;48.928;10.330;2022-07-09T13:11:46;30.70;68.50
6696;DHT22;3385;48.928;10.330;2022-07-09T13:14:14;31.40;66.00
6696;DHT22;3385;48.928;10.330;2022-07-09T13:16:39;31.40;62.60
6696;DHT22;3385;48.928;10.330;2022-07-09T13:19:05;31.10;61.10
6696;DHT22;3385;48.928;10.330;2022-07-09T13:21:31;30.30;61.30
6696;DHT22;3385;48.928;10.330;2022-07-09T13:23:57;29.00;63.90
6696;DHT22;3385;48.928;10.330;2022-07-09T13:26:23;28.40;66.10
6696;DHT22;3385;48.928;10.330;2022-07-09T13:28:49;28.10;67.30
6696;DHT22;3385;48.928;10.330;2022-07-09T13:31:14;28.50;66.50
6696;DHT22;3385;48.928;10.330;2022-07-09T13:33:41;28.90;66.00
6696;DHT22;3385;48.928;10.330;2022-07-09T13:36:07;29.30;66.20
6696;DHT22;3385;48.928;10.330;2022-07-09T13:38:34;29.10;64.20
6696;DHT22;3385;48.928;10.330;2022-07-09T13:41:00;28.20;64.70
6696;DHT22;3385;48.928;10.330;2022-07-09T13:43:27;28.30;65.60
6696;DHT22;3385;48.928;10.330;2022-07-09T13:45:58;29.00;66.30
6696;DHT22;3385;48.928;10.330;2022-07-09T13:48:25;30.30;62.20
6696;DHT22;3385;48.928;10.330;2022-07-09T13:50:52;30.30;61.10
6696;DHT22;3385;48.928;10.330;2022-07-09T13:53:17;29.50;59.90
6696;DHT22;3385;48.928;10.330;2022-07-09T13:55:44;29.20;62.60
6696;DHT22;3385;48.928;10.330;2022-07-09T13:58:12;29.90;62.40
6696;DHT22;3385;48.928;10.330;2022-07-09T14:00:39;29.70;61.40
6696;DHT22;3385;48.928;10.330;2022-07-09T14:03:05;28.70;62.90
6696;DHT22;3385;48.928;10.330;2022-07-09T14:05:35;28.00;64.10
6696;DHT22;3385;48.928;10.330;2022-07-09T14:08:09;27.30;67.00
6696;DHT22;3385;48.928;10.330;2022-07-09T14:10:55;26.30;69.80
6696;DHT22;3385;48.928;10.330;2022-07-09T14:13:27;24.80;71.10
6696;DHT22;3385;48.928;10.330;2022-07-09T14:16:24;24.10;76.60
6696;DHT22;3385;48.928;10.330;2022-07-09T14:19:08;24.40;80.90
6696;DHT22;3385;48.928;10.330;2022-07-09T14:21:34;24.00;81.50
6696;DHT22;3385;48.928;10.330;2022-07-09T14:24:24;23.90;82.50
6696;DHT22;3385;48.928;10.330;2022-07-09T14:27:03;23.50;85.40
6696;DHT22;3385;48.928;10.330;2022-07-09T14:29:38;23.40;84.30
6696;DHT22;3385;48.928;10.330;2022-07-09T14:32:05;23.10;87.50
6696;DHT22;3385;48.928;10.330;2022-07-09T14:34:33;23.40;87.60
6696;DHT22;3385;48.928;10.330;2022-07-09T14:36:59;23.40;87.90
6696;DHT22;3385;48.928;10.330;2022-07-09T14:39:26;23.40;90.10
6696;DHT22;3385;48.928;10.330;2022-07-09T14:43:06;23.40;87.50
6696;DHT22;3385;48.928;10.330;2022-07-09T14:46:08;23.80;88.20
6696;DHT22;3385;48.928;10.330;2022-07-09T14:52:14;24.10;83.70
6696;DHT22;3385;48.928;10.330;2022-07-09T14:54:40;24.30;85.10
6696;DHT22;3385;48.928;10.330;2022-07-09T14:57:11;24.50;84.00
6696;DHT22;3385;48.928;10.330;2022-07-09T15:00:00;24.50;84.10
6696;DHT22;3385;48.928;10.330;2022-07-09T15:02:56;24.50;84.70
6696;DHT22;3385;48.928;10.330;2022-07-09T15:05:22;23.60;85.10
6696;DHT22;3385;48.928;10.330;2022-07-09T15:07:49;24.30;85.00
6696;DHT22;3385;48.928;10.330;2022-07-09T15:10:27;24.20;84.40
6696;DHT22;3385;48.928;10.330;2022-07-09T15:12:54;24.00;87.60
6696;DHT22;3385;48.928;10.330;2022-07-09T15:15:22;23.70;87.30
6696;DHT22;3385;48.928;10.330;2022-07-09T15:17:48;23.60;89.60
6696;DHT22;3385;48.928;10.330;2022-07-09T15:20:15;23.70;90.40
6696;DHT22;3385;48.928;10.330;2022-07-09T15:22:41;24.10;90.90
6696;DHT22;3385;48.928;10.330;2022-07-09T15:25:07;24.40;90.80
6696;DHT22;3385;48.928;10.330;2022-07-09T15:27:33;24.60;89.70
6696;DHT22;3385;48.928;10.330;2022-07-09T15:30:02;24.70;87.30
6696;DHT22;3385;48.928;10.330;2022-07-09T15:32:28;24.70;86.20
6696;DHT22;3385;48.928;10.330;2022-07-09T15:34:54;24.70;89.30
6696;DHT22;3385;48.928;10.330;2022-07-09T15:37:20;24.90;87.10
6696;DHT22;3385;48.928;10.330;2022-07-09T15:39:46;25.40;85.10
6696;DHT22;3385;48.928;10.330;2022-07-09T15:42:13;25.60;84.90
6696;DHT22;3385;48.928;10.330;2022-07-09T15:44:39;25.80;82.10
6696;DHT22;3385;48.928;10.330;2022-07-09T15:47:05;25.60;81.50
6696;DHT22;3385;48.928;10.330;2022-07-09T15:49:31;25.40;82.60
6696;DHT22;3385;48.928;10.330;2022-07-09T15:51:57;25.00;82.10
6696;DHT22;3385;48.928;10.330;2022-07-09T15:54:23;24.70;85.30
6696;DHT22;3385;48.928;10.330;2022-07-09T15:56:51;24.30;86.20
6696;DHT22;3385;48.928;10.330;2022-07-09T15:59:17;24.10;87.20
6696;DHT22;3385;48.928;10.330;2022-07-09T16:01:43;24.00;88.60